sensor_id;sensor_type;location;lat;lon;timestamp;P1;durP1;ratioP1;P2;durP2;ratioP2
49890;SDS011;35780;55.568;37.492;2022-11-15T00:02:10;6.30;;;1.20;;
49890;SDS011;35780;55.568;37.492;2022-11-15T00:04:36;2.92;;;1.30;;
49890;SDS011;35780;55.568;37.492;2022-11-15T00:07:01;2.58;;;1.25;;
49890;SDS011;35780;55.568;37.492;2022-11-15T00:09:27;4.93;;;1.40;;
49890;SDS011;35780;55.568;37.492;2022-11-15T00:11:52;5.95;;;1.75;;
49890;SDS011;35780;55.568;37.492;2022-11-15T00:14:18;3.60;;;1.30;;
49890;SDS011;35780;55.568;37.492;2022-11-15T00:16:43;6.82;;;1.50;;
49890;SDS011;35780;55.568;37.492;2022-11-15T00:19:09;5.97;;;1.50;;
49890;SDS011;35780;55.568;37.492;2022-11-15T00:21:35;4.90;;;1.40;;
49890;SDS011;35780;55.568;37.492;2022-11-15T00:24:00;5.03;;;1.50;;
49890;SDS011;35780;55.568;37.492;2022-11-15T00:26:26;4.65;;;1.45;;
49890;SDS011;35780;55.568;37.492;2022-11-15T00:28:52;5.45;;;1.60;;
49890;SDS011;35780;55.568;37.492;2022-11-15T00:31:18;4.88;;;1.17;;
49890;SDS011;35780;55.568;37.492;2022-11-15T00:33:43;6.32;;;1.45;;
49890;SDS011;35780;55.568;37.492;2022-11-15T00:36:09;5.75;;;1.65;;
49890;SDS011;35780;55.568;37.492;2022-11-15T00:38:37;4.53;;;1.50;;
49890;SDS011;35780;55.568;37.492;2022-11-15T00:41:04;4.05;;;1.40;;
49890;SDS011;35780;55.568;37.492;2022-11-15T00:43:30;5.32;;;1.10;;
49890;SDS011;35780;55.568;37.492;2022-11-15T00:45:56;5.13;;;1.27;;
49890;SDS011;35780;55.568;37.492;2022-11-15T00:48:21;7.70;;;1.55;;
49890;SDS011;35780;55.568;37.492;2022-11-15T00:50:48;5.10;;;1.45;;
49890;SDS011;35780;55.568;37.492;2022-11-15T00:53:13;7.50;;;1.30;;
49890;SDS011;35780;55.568;37.492;2022-11-15T00:55:39;2.78;;;1.30;;
49890;SDS011;35780;55.568;37.492;2022-11-15T00:58:05;6.35;;;1.33;;
49890;SDS011;35780;55.568;37.492;2022-11-15T01:00:30;5.80;;;1.75;;
49890;SDS011;35780;55.568;37.492;2022-11-15T01:02:56;10.05;;;1.42;;
49890;SDS011;35780;55.568;37.492;2022-11-15T01:05:21;4.53;;;1.42;;
49890;SDS011;35780;55.568;37.492;2022-11-15T01:07:50;5.45;;;1.30;;
49890;SDS011;35780;55.568;37.492;2022-11-15T01:10:16;3.92;;;1.35;;
49890;SDS011;35780;55.568;37.492;2022-11-15T01:12:42;3.38;;;1.30;;
49890;SDS011;35780;55.568;37.492;2022-11-15T01:15:08;4.53;;;1.40;;
49890;SDS011;35780;55.568;37.492;2022-11-15T01:17:33;10.35;;;1.35;;
49890;SDS011;35780;55.568;37.492;2022-11-15T01:19:59;7.32;;;1.98;;
49890;SDS011;35780;55.568;37.492;2022-11-15T01:22:24;4.25;;;1.30;;
49890;SDS011;35780;55.568;37.492;2022-11-15T01:24:50;8.00;;;1.35;;
49890;SDS011;35780;55.568;37.492;2022-11-15T01:27:16;6.53;;;1.30;;
49890;SDS011;35780;55.568;37.492;2022-11-15T01:29:41;3.40;;;1.10;;
49890;SDS011;35780;55.568;37.492;2022-11-15T01:32:07;3.28;;;1.20;;
49890;SDS011;35780;55.568;37.492;2022-11-15T01:34:33;6.22;;;1.55;;
49890;SDS011;35780;55.568;37.492;2022-11-15T01:36:58;8.25;;;1.90;;
49890;SDS011;35780;55.568;37.492;2022-11-15T01:39:24;4.00;;;1.42;;
49890;SDS011;35780;55.568;37.492;2022-11-15T01:41:49;2.67;;;1.17;;
49890;SDS011;35780;55.568;37.492;2022-11-15T01:46:56;6.18;;;1.60;;
49890;SDS011;35780;55.568;37.492;2022-11-15T01:49:23;4.50;;;1.13;;
49890;SDS011;35780;55.568;37.492;2022-11-15T01:51:49;5.40;;;2.10;;
49890;SDS011;35780;55.568;37.492;2022-11-15T01:54:15;8.18;;;1.65;;
49890;SDS011;35780;55.568;37.492;2022-11-15T01:56:46;4.25;;;1.50;;
49890;SDS011;35780;55.568;37.492;2022-11-15T01:59:15;4.28;;;1.30;;
49890;SDS011;35780;55.568;37.492;2022-11-15T02:01:41;4.47;;;1.50;;
49890;SDS011;35780;55.568;37.492;2022-11-15T02:04:11;5.70;;;1.50;;
49890;SDS011;35780;55.568;37.492;2022-11-15T02:06:37;7.50;;;1.60;;
49890;SDS011;35780;55.568;37.492;2022-11-15T02:09:03;5.40;;;1.65;;
49890;SDS011;35780;55.568;37.492;2022-11-15T02:11:29;4.47;;;1.60;;
49890;SDS011;35780;55.568;37.492;2022-11-15T02:13:55;8.70;;;1.60;;
49890;SDS011;35780;55.568;37.492;2022-11-15T02:25:05;6.70;;;1.60;;
49890;SDS011;35780;55.568;37.492;2022-11-15T02:44:21;6.97;;;1.75;;
49890;SDS011;35780;55.568;37.492;2022-11-15T02:49:37;6.38;;;1.60;;
49890;SDS011;35780;55.568;37.492;2022-11-15T02:52:05;7.30;;;1.50;;
49890;SDS011;35780;55.568;37.492;2022-11-15T02:54:31;6.70;;;2.80;;
49890;SDS011;35780;55.568;37.492;2022-11-15T02:57:02;4.93;;;1.80;;
49890;SDS011;35780;55.568;37.492;2022-11-15T03:06:19;4.85;;;1.40;;
49890;SDS011;35780;55.568;37.492;2022-11-15T03:19:59;4.97;;;1.00;;
49890;SDS011;35780;55.568;37.492;2022-11-15T03:22:29;3.67;;;1.35;;
49890;SDS011;35780;55.568;37.492;2022-11-15T03:25:00;3.65;;;1.30;;
49890;SDS011;35780;55.568;37.492;2022-11-15T03:27:30;3.25;;;1.52;;
49890;SDS011;35780;55.568;37.492;2022-11-15T03:29:59;6.07;;;1.48;;
49890;SDS011;35780;55.568;37.492;2022-11-15T03:32:27;6.03;;;1.35;;
49890;SDS011;35780;55.568;37.492;2022-11-15T03:34:58;2.55;;;1.13;;
49890;SDS011;35780;55.568;37.492;2022-11-15T03:37:31;9.18;;;1.73;;
49890;SDS011;35780;55.568;37.492;2022-11-15T03:40:00;5.70;;;1.65;;
49890;SDS011;35780;55.568;37.492;2022-11-15T03:42:27;3.58;;;1.42;;
49890;SDS011;35780;55.568;37.492;2022-11-15T03:47:34;7.80;;;1.33;;
49890;SDS011;35780;55.568;37.492;2022-11-15T03:50:07;6.35;;;1.33;;
49890;SDS011;35780;55.568;37.492;2022-11-15T03:52:36;8.45;;;1.63;;
49890;SDS011;35780;55.568;37.492;2022-11-15T03:55:02;5.85;;;1.10;;
49890;SDS011;35780;55.568;37.492;2022-11-15T03:57:29;11.43;;;1.20;;
49890;SDS011;35780;55.568;37.492;2022-11-15T03:59:54;10.13;;;2.30;;
49890;SDS011;35780;55.568;37.492;2022-11-15T04:02:20;6.78;;;1.20;;
49890;SDS011;35780;55.568;37.492;2022-11-15T04:04:45;4.38;;;1.35;;
49890;SDS011;35780;55.568;37.492;2022-11-15T04:07:11;5.65;;;1.45;;
49890;SDS011;35780;55.568;37.492;2022-11-15T04:09:37;11.73;;;1.77;;
49890;SDS011;35780;55.568;37.492;2022-11-15T04:12:21;5.82;;;1.55;;
49890;SDS011;35780;55.568;37.492;2022-11-15T04:14:56;5.25;;;1.60;;
49890;SDS011;35780;55.568;37.492;2022-11-15T04:17:32;7.18;;;1.50;;
49890;SDS011;35780;55.568;37.492;2022-11-15T04:19:58;7.93;;;2.28;;
49890;SDS011;35780;55.568;37.492;2022-11-15T04:22:42;3.67;;;1.50;;
49890;SDS011;35780;55.568;37.492;2022-11-15T04:25:26;9.13;;;1.65;;
49890;SDS011;35780;55.568;37.492;2022-11-15T04:27:52;7.47;;;2.05;;
49890;SDS011;35780;55.568;37.492;2022-11-15T04:30:17;4.75;;;1.65;;
49890;SDS011;35780;55.568;37.492;2022-11-15T04:32:43;7.40;;;1.75;;
49890;SDS011;35780;55.568;37.492;2022-11-15T04:35:08;9.68;;;1.75;;
49890;SDS011;35780;55.568;37.492;2022-11-15T04:37:34;7.93;;;1.58;;
49890;SDS011;35780;55.568;37.492;2022-11-15T04:39:59;5.10;;;1.48;;
49890;SDS011;35780;55.568;37.492;2022-11-15T04:42:25;6.25;;;1.50;;
49890;SDS011;35780;55.568;37.492;2022-11-15T04:44:51;5.53;;;1.45;;
49890;SDS011;35780;55.568;37.492;2022-11-15T04:47:16;9.55;;;2.00;;
49890;SDS011;35780;55.568;37.492;2022-11-15T04:49:42;5.60;;;1.52;;
49890;SDS011;35780;55.568;37.492;2022-11-15T04:52:09;14.85;;;3.75;;
49890;SDS011;35780;55.568;37.492;2022-11-15T04:54:34;7.70;;;1.13;;
49890;SDS011;35780;55.568;37.492;2022-11-15T04:57:00;3.90;;;1.38;;
49890;SDS011;35780;55.568;37.492;2022-11-15T04:59:25;9.63;;;1.60;;
49890;SDS011;35780;55.568;37.492;2022-11-15T05:01:51;11.07;;;2.00;;
49890;SDS011;35780;55.568;37.492;2022-11-15T05:04:16;13.15;;;1.95;;
49890;SDS011;35780;55.568;37.492;2022-11-15T05:06:48;8.57;;;1.67;;
49890;SDS011;35780;55.568;37.492;2022-11-15T05:09:15;10.55;;;1.60;;
49890;SDS011;35780;55.568;37.492;2022-11-15T05:11:41;6.15;;;1.45;;
49890;SDS011;35780;55.568;37.492;2022-11-15T05:14:06;6.63;;;2.58;;
49890;SDS011;35780;55.568;37.492;2022-11-15T05:16:32;7.45;;;1.98;;
49890;SDS011;35780;55.568;37.492;2022-11-15T05:18:57;3.08;;;1.25;;
49890;SDS011;35780;55.568;37.492;2022-11-15T05:21:23;8.23;;;1.90;;
49890;SDS011;35780;55.568;37.492;2022-11-15T05:23:48;4.75;;;1.30;;
49890;SDS011;35780;55.568;37.492;2022-11-15T05:26:15;7.60;;;2.13;;
49890;SDS011;35780;55.568;37.492;2022-11-15T05:28:41;8.52;;;1.73;;
49890;SDS011;35780;55.568;37.492;2022-11-15T05:31:07;10.95;;;1.95;;
49890;SDS011;35780;55.568;37.492;2022-11-15T05:33:35;9.23;;;2.53;;
49890;SDS011;35780;55.568;37.492;2022-11-15T05:38:35;9.35;;;2.00;;
49890;SDS011;35780;55.568;37.492;2022-11-15T05:41:00;7.10;;;1.90;;
49890;SDS011;35780;55.568;37.492;2022-11-15T05:43:27;9.00;;;2.15;;
49890;SDS011;35780;55.568;37.492;2022-11-15T05:45:54;9.00;;;2.30;;
49890;SDS011;35780;55.568;37.492;2022-11-15T05:48:20;3.50;;;1.67;;
49890;SDS011;35780;55.568;37.492;2022-11-15T05:50:46;4.13;;;1.73;;
49890;SDS011;35780;55.568;37.492;2022-11-15T05:53:13;6.05;;;2.00;;
49890;SDS011;35780;55.568;37.492;2022-11-15T05:55:40;8.50;;;2.30;;
49890;SDS011;35780;55.568;37.492;2022-11-15T05:58:06;8.55;;;2.08;;
49890;SDS011;35780;55.568;37.492;2022-11-15T06:00:32;5.22;;;1.77;;
49890;SDS011;35780;55.568;37.492;2022-11-15T06:02:57;6.97;;;1.98;;
49890;SDS011;35780;55.568;37.492;2022-11-15T06:05:23;17.67;;;2.40;;
49890;SDS011;35780;55.568;37.492;2022-11-15T06:07:48;4.25;;;1.70;;
49890;SDS011;35780;55.568;37.492;2022-11-15T06:10:14;9.13;;;1.88;;
49890;SDS011;35780;55.568;37.492;2022-11-15T06:12:39;8.65;;;1.50;;
49890;SDS011;35780;55.568;37.492;2022-11-15T06:15:05;5.25;;;2.03;;
49890;SDS011;35780;55.568;37.492;2022-11-15T06:17:31;9.88;;;1.70;;
49890;SDS011;35780;55.568;37.492;2022-11-15T06:19:56;4.43;;;1.80;;
49890;SDS011;35780;55.568;37.492;2022-11-15T06:22:23;7.07;;;2.13;;
49890;SDS011;35780;55.568;37.492;2022-11-15T06:24:49;7.93;;;1.88;;
49890;SDS011;35780;55.568;37.492;2022-11-15T06:27:14;8.35;;;1.42;;
49890;SDS011;35780;55.568;37.492;2022-11-15T06:29:40;15.25;;;2.47;;
49890;SDS011;35780;55.568;37.492;2022-11-15T06:32:05;10.63;;;2.20;;
49890;SDS011;35780;55.568;37.492;2022-11-15T06:34:31;8.60;;;1.73;;
49890;SDS011;35780;55.568;37.492;2022-11-15T06:36:56;4.97;;;1.90;;
49890;SDS011;35780;55.568;37.492;2022-11-15T06:39:22;13.55;;;1.85;;
49890;SDS011;35780;55.568;37.492;2022-11-15T06:41:47;9.45;;;2.22;;
49890;SDS011;35780;55.568;37.492;2022-11-15T06:44:13;5.82;;;2.03;;
49890;SDS011;35780;55.568;37.492;2022-11-15T06:46:38;4.40;;;1.52;;
49890;SDS011;35780;55.568;37.492;2022-11-15T06:49:04;6.18;;;1.85;;
49890;SDS011;35780;55.568;37.492;2022-11-15T06:51:29;3.92;;;1.70;;
49890;SDS011;35780;55.568;37.492;2022-11-15T06:53:55;9.02;;;2.30;;
49890;SDS011;35780;55.568;37.492;2022-11-15T06:56:20;4.57;;;2.33;;
49890;SDS011;35780;55.568;37.492;2022-11-15T06:58:46;6.15;;;2.25;;
49890;SDS011;35780;55.568;37.492;2022-11-15T07:01:12;6.38;;;1.67;;
49890;SDS011;35780;55.568;37.492;2022-11-15T07:03:38;13.18;;;2.17;;
49890;SDS011;35780;55.568;37.492;2022-11-15T07:06:05;8.13;;;1.75;;
49890;SDS011;35780;55.568;37.492;2022-11-15T07:08:31;7.05;;;2.10;;
49890;SDS011;35780;55.568;37.492;2022-11-15T07:11:00;4.03;;;2.05;;
49890;SDS011;35780;55.568;37.492;2022-11-15T07:13:27;7.90;;;2.38;;
49890;SDS011;35780;55.568;37.492;2022-11-15T07:15:53;8.10;;;1.67;;
49890;SDS011;35780;55.568;37.492;2022-11-15T07:18:19;8.98;;;2.00;;
49890;SDS011;35780;55.568;37.492;2022-11-15T07:20:45;4.63;;;1.45;;
49890;SDS011;35780;55.568;37.492;2022-11-15T07:23:10;7.75;;;1.88;;
49890;SDS011;35780;55.568;37.492;2022-11-15T07:25:35;9.02;;;2.53;;
49890;SDS011;35780;55.568;37.492;2022-11-15T07:28:01;14.27;;;2.65;;
49890;SDS011;35780;55.568;37.492;2022-11-15T07:30:28;4.35;;;2.00;;
49890;SDS011;35780;55.568;37.492;2022-11-15T07:32:57;8.40;;;2.08;;
49890;SDS011;35780;55.568;37.492;2022-11-15T07:35:24;5.55;;;1.73;;
49890;SDS011;35780;55.568;37.492;2022-11-15T07:37:56;7.30;;;2.03;;
49890;SDS011;35780;55.568;37.492;2022-11-15T07:40:23;6.35;;;1.38;;
49890;SDS011;35780;55.568;37.492;2022-11-15T07:42:50;6.80;;;1.85;;
49890;SDS011;35780;55.568;37.492;2022-11-15T07:45:18;8.88;;;1.88;;
49890;SDS011;35780;55.568;37.492;2022-11-15T07:47:48;7.72;;;2.88;;
49890;SDS011;35780;55.568;37.492;2022-11-15T07:50:14;7.68;;;2.30;;
49890;SDS011;35780;55.568;37.492;2022-11-15T07:52:40;11.15;;;2.83;;
49890;SDS011;35780;55.568;37.492;2022-11-15T07:55:06;17.05;;;3.55;;
49890;SDS011;35780;55.568;37.492;2022-11-15T07:57:32;10.80;;;2.85;;
49890;SDS011;35780;55.568;37.492;2022-11-15T07:59:58;13.95;;;3.72;;
49890;SDS011;35780;55.568;37.492;2022-11-15T08:02:23;8.93;;;2.90;;
49890;SDS011;35780;55.568;37.492;2022-11-15T08:04:49;4.40;;;2.30;;
49890;SDS011;35780;55.568;37.492;2022-11-15T08:07:14;6.22;;;1.58;;
49890;SDS011;35780;55.568;37.492;2022-11-15T08:09:40;5.65;;;1.70;;
49890;SDS011;35780;55.568;37.492;2022-11-15T08:12:06;5.15;;;1.98;;
49890;SDS011;35780;55.568;37.492;2022-11-15T08:14:31;12.43;;;3.97;;
49890;SDS011;35780;55.568;37.492;2022-11-15T08:16:57;12.57;;;3.13;;
49890;SDS011;35780;55.568;37.492;2022-11-15T08:19:23;9.05;;;3.05;;
49890;SDS011;35780;55.568;37.492;2022-11-15T08:21:48;10.13;;;2.55;;
49890;SDS011;35780;55.568;37.492;2022-11-15T08:24:14;9.35;;;2.80;;
49890;SDS011;35780;55.568;37.492;2022-11-15T08:26:40;9.48;;;2.88;;
49890;SDS011;35780;55.568;37.492;2022-11-15T08:29:05;7.15;;;2.60;;
49890;SDS011;35780;55.568;37.492;2022-11-15T08:31:33;10.35;;;2.83;;
49890;SDS011;35780;55.568;37.492;2022-11-15T08:33:59;8.00;;;2.90;;
49890;SDS011;35780;55.568;37.492;2022-11-15T08:36:25;7.20;;;2.30;;
49890;SDS011;35780;55.568;37.492;2022-11-15T08:38:51;12.50;;;2.17;;
49890;SDS011;35780;55.568;37.492;2022-11-15T08:41:19;7.75;;;2.55;;
49890;SDS011;35780;55.568;37.492;2022-11-15T08:43:52;9.75;;;2.75;;
49890;SDS011;35780;55.568;37.492;2022-11-15T08:46:18;14.77;;;2.83;;
49890;SDS011;35780;55.568;37.492;2022-11-15T08:48:44;4.30;;;2.00;;
49890;SDS011;35780;55.568;37.492;2022-11-15T08:51:09;4.78;;;1.77;;
49890;SDS011;35780;55.568;37.492;2022-11-15T08:53:35;10.05;;;2.03;;
49890;SDS011;35780;55.568;37.492;2022-11-15T08:56:01;7.28;;;2.45;;
49890;SDS011;35780;55.568;37.492;2022-11-15T08:58:26;7.88;;;2.15;;
49890;SDS011;35780;55.568;37.492;2022-11-15T09:00:52;9.32;;;2.17;;
49890;SDS011;35780;55.568;37.492;2022-11-15T09:03:17;10.35;;;2.65;;
49890;SDS011;35780;55.568;37.492;2022-11-15T09:05:43;6.05;;;1.95;;
49890;SDS011;35780;55.568;37.492;2022-11-15T09:08:08;9.40;;;2.05;;
49890;SDS011;35780;55.568;37.492;2022-11-15T09:10:34;7.00;;;2.00;;
49890;SDS011;35780;55.568;37.492;2022-11-15T09:13:00;6.88;;;2.08;;
49890;SDS011;35780;55.568;37.492;2022-11-15T09:15:25;8.43;;;2.53;;
49890;SDS011;35780;55.568;37.492;2022-11-15T09:17:51;9.80;;;2.13;;
49890;SDS011;35780;55.568;37.492;2022-11-15T09:20:16;9.73;;;2.50;;
49890;SDS011;35780;55.568;37.492;2022-11-15T09:22:42;5.72;;;2.28;;
49890;SDS011;35780;55.568;37.492;2022-11-15T09:25:07;8.60;;;2.38;;
49890;SDS011;35780;55.568;37.492;2022-11-15T09:27:33;12.27;;;2.55;;
49890;SDS011;35780;55.568;37.492;2022-11-15T09:29:59;14.15;;;2.40;;
49890;SDS011;35780;55.568;37.492;2022-11-15T09:32:27;6.97;;;1.85;;
49890;SDS011;35780;55.568;37.492;2022-11-15T09:34:53;8.60;;;1.98;;
49890;SDS011;35780;55.568;37.492;2022-11-15T09:37:19;5.20;;;1.92;;
49890;SDS011;35780;55.568;37.492;2022-11-15T09:39:44;13.30;;;2.95;;
49890;SDS011;35780;55.568;37.492;2022-11-15T09:46:04;14.50;;;2.75;;
49890;SDS011;35780;55.568;37.492;2022-11-15T09:53:00;8.15;;;3.03;;
49890;SDS011;35780;55.568;37.492;2022-11-15T09:55:30;10.52;;;2.47;;
49890;SDS011;35780;55.568;37.492;2022-11-15T09:58:01;8.48;;;2.58;;
49890;SDS011;35780;55.568;37.492;2022-11-15T10:00:40;14.98;;;3.83;;
49890;SDS011;35780;55.568;37.492;2022-11-15T10:05:51;7.60;;;2.63;;
49890;SDS011;35780;55.568;37.492;2022-11-15T10:11:23;13.68;;;1.92;;
49890;SDS011;35780;55.568;37.492;2022-11-15T10:13:50;7.65;;;1.75;;
49890;SDS011;35780;55.568;37.492;2022-11-15T10:19:02;9.35;;;3.00;;
49890;SDS011;35780;55.568;37.492;2022-11-15T10:21:43;6.78;;;2.10;;
49890;SDS011;35780;55.568;37.492;2022-11-15T10:24:12;12.00;;;2.45;;
49890;SDS011;35780;55.568;37.492;2022-11-15T10:26:39;9.20;;;2.92;;
49890;SDS011;35780;55.568;37.492;2022-11-15T10:29:10;13.65;;;2.20;;
49890;SDS011;35780;55.568;37.492;2022-11-15T10:31:37;6.53;;;2.88;;
49890;SDS011;35780;55.568;37.492;2022-11-15T10:34:14;6.78;;;2.38;;
49890;SDS011;35780;55.568;37.492;2022-11-15T10:36:46;11.38;;;2.17;;
49890;SDS011;35780;55.568;37.492;2022-11-15T10:39:21;5.95;;;1.95;;
49890;SDS011;35780;55.568;37.492;2022-11-15T10:41:47;13.77;;;2.10;;
49890;SDS011;35780;55.568;37.492;2022-11-15T10:46:42;11.40;;;2.60;;
49890;SDS011;35780;55.568;37.492;2022-11-15T10:49:12;9.48;;;2.13;;
49890;SDS011;35780;55.568;37.492;2022-11-15T10:51:43;5.82;;;1.77;;
49890;SDS011;35780;55.568;37.492;2022-11-15T10:54:13;7.53;;;2.00;;
49890;SDS011;35780;55.568;37.492;2022-11-15T10:56:48;4.25;;;1.77;;
49890;SDS011;35780;55.568;37.492;2022-11-15T10:59:22;9.82;;;2.33;;
49890;SDS011;35780;55.568;37.492;2022-11-15T11:01:50;9.57;;;2.53;;
49890;SDS011;35780;55.568;37.492;2022-11-15T11:04:15;10.30;;;1.90;;
49890;SDS011;35780;55.568;37.492;2022-11-15T11:06:57;9.88;;;2.90;;
49890;SDS011;35780;55.568;37.492;2022-11-15T11:09:31;5.43;;;1.83;;
49890;SDS011;35780;55.568;37.492;2022-11-15T11:11:58;10.35;;;2.65;;
49890;SDS011;35780;55.568;37.492;2022-11-15T11:14:26;5.15;;;1.70;;
49890;SDS011;35780;55.568;37.492;2022-11-15T11:17:06;7.43;;;2.25;;
49890;SDS011;35780;55.568;37.492;2022-11-15T11:19:44;5.40;;;1.85;;
49890;SDS011;35780;55.568;37.492;2022-11-15T11:22:20;4.75;;;1.75;;
49890;SDS011;35780;55.568;37.492;2022-11-15T11:27:59;3.08;;;0.98;;
49890;SDS011;35780;55.568;37.492;2022-11-15T11:33:21;13.70;;;2.50;;
49890;SDS011;35780;55.568;37.492;2022-11-15T11:47:03;7.18;;;2.42;;
49890;SDS011;35780;55.568;37.492;2022-11-15T11:52:07;10.38;;;2.35;;
49890;SDS011;35780;55.568;37.492;2022-11-15T11:55:17;3.85;;;1.60;;
49890;SDS011;35780;55.568;37.492;2022-11-15T12:00:31;9.20;;;2.50;;
49890;SDS011;35780;55.568;37.492;2022-11-15T12:03:22;7.20;;;2.13;;
49890;SDS011;35780;55.568;37.492;2022-11-15T12:05:50;12.13;;;2.22;;
49890;SDS011;35780;55.568;37.492;2022-11-15T12:13:30;9.40;;;2.10;;
49890;SDS011;35780;55.568;37.492;2022-11-15T12:16:02;11.80;;;2.88;;
49890;SDS011;35780;55.568;37.492;2022-11-15T12:18:29;12.95;;;4.20;;
49890;SDS011;35780;55.568;37.492;2022-11-15T12:20:56;8.43;;;2.25;;
49890;SDS011;35780;55.568;37.492;2022-11-15T12:23:28;7.68;;;2.33;;
49890;SDS011;35780;55.568;37.492;2022-11-15T12:26:03;8.05;;;2.33;;
49890;SDS011;35780;55.568;37.492;2022-11-15T12:28:38;6.95;;;2.95;;
49890;SDS011;35780;55.568;37.492;2022-11-15T12:31:17;5.60;;;2.25;;
49890;SDS011;35780;55.568;37.492;2022-11-15T12:33:49;5.82;;;2.20;;
49890;SDS011;35780;55.568;37.492;2022-11-15T12:41:31;10.50;;;3.38;;
49890;SDS011;35780;55.568;37.492;2022-11-15T12:43:57;5.65;;;2.53;;
49890;SDS011;35780;55.568;37.492;2022-11-15T12:48:56;9.05;;;2.42;;
49890;SDS011;35780;55.568;37.492;2022-11-15T13:25:18;11.10;;;4.40;;
49890;SDS011;35780;55.568;37.492;2022-11-15T13:27:47;11.60;;;3.63;;
49890;SDS011;35780;55.568;37.492;2022-11-15T13:30:35;7.88;;;3.92;;
49890;SDS011;35780;55.568;37.492;2022-11-15T13:33:05;15.15;;;4.68;;
49890;SDS011;35780;55.568;37.492;2022-11-15T13:35:38;12.32;;;4.32;;
49890;SDS011;35780;55.568;37.492;2022-11-15T13:38:05;16.55;;;5.03;;
49890;SDS011;35780;55.568;37.492;2022-11-15T13:40:35;7.95;;;3.30;;
49890;SDS011;35780;55.568;37.492;2022-11-15T13:43:23;13.18;;;5.90;;
49890;SDS011;35780;55.568;37.492;2022-11-15T13:48:41;17.15;;;5.55;;
49890;SDS011;35780;55.568;37.492;2022-11-15T13:53:36;17.92;;;8.95;;
49890;SDS011;35780;55.568;37.492;2022-11-15T13:56:04;12.38;;;4.57;;
49890;SDS011;35780;55.568;37.492;2022-11-15T13:58:30;12.93;;;5.75;;
49890;SDS011;35780;55.568;37.492;2022-11-15T14:01:00;15.90;;;5.68;;
49890;SDS011;35780;55.568;37.492;2022-11-15T14:03:27;17.52;;;6.13;;
49890;SDS011;35780;55.568;37.492;2022-11-15T14:06:12;13.52;;;5.25;;
49890;SDS011;35780;55.568;37.492;2022-11-15T14:08:41;17.30;;;5.65;;
49890;SDS011;35780;55.568;37.492;2022-11-15T14:11:15;13.77;;;5.43;;
49890;SDS011;35780;55.568;37.492;2022-11-15T14:13:42;19.13;;;5.97;;
49890;SDS011;35780;55.568;37.492;2022-11-15T14:16:34;16.23;;;6.22;;
49890;SDS011;35780;55.568;37.492;2022-11-15T14:19:01;16.10;;;5.63;;
49890;SDS011;35780;55.568;37.492;2022-11-15T14:21:27;22.98;;;6.10;;
49890;SDS011;35780;55.568;37.492;2022-11-15T14:24:13;13.70;;;6.60;;
49890;SDS011;35780;55.568;37.492;2022-11-15T14:26:42;15.00;;;7.07;;
49890;SDS011;35780;55.568;37.492;2022-11-15T14:29:26;12.98;;;4.85;;
49890;SDS011;35780;55.568;37.492;2022-11-15T14:31:54;14.23;;;4.85;;
49890;SDS011;35780;55.568;37.492;2022-11-15T14:34:58;10.82;;;4.35;;
49890;SDS011;35780;55.568;37.492;2022-11-15T14:37:25;8.70;;;3.13;;
49890;SDS011;35780;55.568;37.492;2022-11-15T14:40:01;12.82;;;5.13;;
49890;SDS011;35780;55.568;37.492;2022-11-15T14:42:29;15.23;;;6.03;;
49890;SDS011;35780;55.568;37.492;2022-11-15T14:44:54;15.48;;;5.38;;
49890;SDS011;35780;55.568;37.492;2022-11-15T14:47:20;12.23;;;4.50;;
49890;SDS011;35780;55.568;37.492;2022-11-15T14:49:45;10.35;;;4.65;;
49890;SDS011;35780;55.568;37.492;2022-11-15T14:54:50;6.90;;;2.90;;
49890;SDS011;35780;55.568;37.492;2022-11-15T14:57:16;12.07;;;3.70;;
49890;SDS011;35780;55.568;37.492;2022-11-15T14:59:41;9.43;;;3.50;;
49890;SDS011;35780;55.568;37.492;2022-11-15T15:02:14;19.50;;;4.13;;
49890;SDS011;35780;55.568;37.492;2022-11-15T15:04:42;13.23;;;4.60;;
49890;SDS011;35780;55.568;37.492;2022-11-15T15:07:07;15.98;;;4.60;;
49890;SDS011;35780;55.568;37.492;2022-11-15T15:09:33;13.90;;;4.90;;
49890;SDS011;35780;55.568;37.492;2022-11-15T15:11:58;13.02;;;4.72;;
49890;SDS011;35780;55.568;37.492;2022-11-15T15:14:24;12.85;;;5.00;;
49890;SDS011;35780;55.568;37.492;2022-11-15T15:16:49;8.48;;;2.40;;
49890;SDS011;35780;55.568;37.492;2022-11-15T15:19:15;9.75;;;3.33;;
49890;SDS011;35780;55.568;37.492;2022-11-15T15:21:41;11.35;;;4.10;;
49890;SDS011;35780;55.568;37.492;2022-11-15T15:24:07;8.15;;;4.25;;
49890;SDS011;35780;55.568;37.492;2022-11-15T15:26:38;11.55;;;5.10;;
49890;SDS011;35780;55.568;37.492;2022-11-15T15:29:04;17.25;;;4.32;;
49890;SDS011;35780;55.568;37.492;2022-11-15T15:31:30;7.18;;;3.53;;
49890;SDS011;35780;55.568;37.492;2022-11-15T15:33:55;15.15;;;4.03;;
49890;SDS011;35780;55.568;37.492;2022-11-15T15:36:21;7.53;;;3.17;;
49890;SDS011;35780;55.568;37.492;2022-11-15T15:38:46;9.65;;;4.93;;
49890;SDS011;35780;55.568;37.492;2022-11-15T15:41:13;13.48;;;3.63;;
49890;SDS011;35780;55.568;37.492;2022-11-15T15:43:39;10.48;;;2.58;;
49890;SDS011;35780;55.568;37.492;2022-11-15T15:46:09;10.38;;;3.65;;
49890;SDS011;35780;55.568;37.492;2022-11-15T15:48:36;8.98;;;3.83;;
49890;SDS011;35780;55.568;37.492;2022-11-15T15:51:03;10.55;;;4.10;;
49890;SDS011;35780;55.568;37.492;2022-11-15T15:53:28;8.43;;;3.83;;
49890;SDS011;35780;55.568;37.492;2022-11-15T15:55:55;9.88;;;4.57;;
49890;SDS011;35780;55.568;37.492;2022-11-15T15:58:20;14.32;;;5.18;;
49890;SDS011;35780;55.568;37.492;2022-11-15T16:00:46;12.48;;;4.20;;
49890;SDS011;35780;55.568;37.492;2022-11-15T16:03:11;8.75;;;4.65;;
49890;SDS011;35780;55.568;37.492;2022-11-15T16:05:37;14.00;;;5.07;;
49890;SDS011;35780;55.568;37.492;2022-11-15T16:08:03;10.32;;;4.47;;
49890;SDS011;35780;55.568;37.492;2022-11-15T16:10:33;10.60;;;5.63;;
49890;SDS011;35780;55.568;37.492;2022-11-15T16:12:59;12.55;;;6.82;;
49890;SDS011;35780;55.568;37.492;2022-11-15T16:15:26;10.65;;;5.57;;
49890;SDS011;35780;55.568;37.492;2022-11-15T16:17:56;12.43;;;6.05;;
49890;SDS011;35780;55.568;37.492;2022-11-15T16:20:29;14.57;;;5.30;;
49890;SDS011;35780;55.568;37.492;2022-11-15T16:22:56;12.95;;;5.97;;
49890;SDS011;35780;55.568;37.492;2022-11-15T16:25:22;13.88;;;6.40;;
49890;SDS011;35780;55.568;37.492;2022-11-15T16:27:47;11.38;;;4.85;;
49890;SDS011;35780;55.568;37.492;2022-11-15T16:30:14;12.40;;;5.10;;
49890;SDS011;35780;55.568;37.492;2022-11-15T16:32:41;15.32;;;7.18;;
49890;SDS011;35780;55.568;37.492;2022-11-15T16:35:07;12.20;;;6.28;;
49890;SDS011;35780;55.568;37.492;2022-11-15T16:37:37;16.35;;;7.18;;
49890;SDS011;35780;55.568;37.492;2022-11-15T16:40:07;14.90;;;8.95;;
49890;SDS011;35780;55.568;37.492;2022-11-15T16:42:47;11.10;;;4.97;;
49890;SDS011;35780;55.568;37.492;2022-11-15T16:45:13;14.07;;;6.65;;
49890;SDS011;35780;55.568;37.492;2022-11-15T16:47:38;10.02;;;5.35;;
49890;SDS011;35780;55.568;37.492;2022-11-15T16:50:04;20.00;;;8.85;;
49890;SDS011;35780;55.568;37.492;2022-11-15T16:52:30;14.93;;;6.45;;
49890;SDS011;35780;55.568;37.492;2022-11-15T16:54:56;12.80;;;6.03;;
49890;SDS011;35780;55.568;37.492;2022-11-15T16:57:21;13.95;;;7.00;;
49890;SDS011;35780;55.568;37.492;2022-11-15T16:59:47;13.32;;;5.45;;
49890;SDS011;35780;55.568;37.492;2022-11-15T17:02:12;12.27;;;5.35;;
49890;SDS011;35780;55.568;37.492;2022-11-15T17:04:39;5.78;;;3.45;;
49890;SDS011;35780;55.568;37.492;2022-11-15T17:07:04;10.77;;;5.07;;